createdAt,value
2023-05-06T00:02:11.750Z,15.20
2023-05-06T00:04:38.533Z,15.20
2023-05-06T00:07:05.810Z,15.20
2023-05-06T00:09:32.514Z,15.20
2023-05-06T00:11:59.154Z,15.20
2023-05-06T00:14:25.816Z,15.20
2023-05-06T00:16:52.448Z,15.30
2023-05-06T00:19:19.159Z,15.20
2023-05-06T00:21:45.923Z,15.40
2023-05-06T00:24:12.601Z,15.40
2023-05-06T00:26:39.248Z,15.20
2023-05-06T00:29:05.920Z,15.00
2023-05-06T00:31:32.606Z,15.00
2023-05-06T00:33:59.253Z,15.00
2023-05-06T00:36:26.048Z,15.10
2023-05-06T00:38:52.706Z,15.10
2023-05-06T00:41:19.337Z,15.20
2023-05-06T00:43:46.097Z,15.30
2023-05-06T00:46:16.094Z,15.10
2023-05-06T00:48:44.202Z,15.00
2023-05-06T00:51:12.111Z,15.10
2023-05-06T00:53:39.743Z,15.00
2023-05-06T00:56:07.246Z,15.10
2023-05-06T00:58:34.914Z,15.10
2023-05-06T01:01:02.136Z,15.00
2023-05-06T01:03:29.190Z,15.00
2023-05-06T01:06:05.265Z,15.10
2023-05-06T01:08:51.351Z,15.10
2023-05-06T01:11:37.613Z,15.10
2023-05-06T01:14:14.886Z,15.10
2023-05-06T01:16:42.189Z,14.90
2023-05-06T01:19:20.768Z,14.80
2023-05-06T01:21:51.124Z,14.80
2023-05-06T01:24:17.830Z,14.90
2023-05-06T01:26:44.529Z,15.00
2023-05-06T01:29:12.485Z,15.00
2023-05-06T01:31:47.982Z,14.90
2023-05-06T01:34:25.324Z,14.90
2023-05-06T01:37:06.912Z,14.80
2023-05-06T01:39:34.423Z,14.70
2023-05-06T01:42:03.623Z,14.80
2023-05-06T01:44:33.763Z,14.80
2023-05-06T01:47:02.304Z,14.80
2023-05-06T01:49:30.230Z,14.80
2023-05-06T01:51:57.807Z,14.90
2023-05-06T01:54:24.534Z,15.00
2023-05-06T01:56:51.291Z,14.80
2023-05-06T01:59:17.961Z,14.80
2023-05-06T02:01:44.926Z,14.60
2023-05-06T02:04:11.825Z,14.60
2023-05-06T02:06:39.027Z,14.40
2023-05-06T02:09:06.218Z,14.20
2023-05-06T02:11:37.795Z,14.10
2023-05-06T02:14:06.691Z,14.20
2023-05-06T02:16:35.112Z,14.10
2023-05-06T02:19:01.947Z,14.20
2023-05-06T02:21:28.658Z,14.10
2023-05-06T02:23:55.320Z,14.10
2023-05-06T02:26:21.982Z,14.00
2023-05-06T02:28:48.762Z,13.90
2023-05-06T02:31:16.059Z,13.70
2023-05-06T02:33:43.194Z,13.70
2023-05-06T02:36:11.211Z,13.80
2023-05-06T02:38:37.829Z,13.80
2023-05-06T02:41:04.479Z,13.70
2023-05-06T02:43:31.197Z,13.80
2023-05-06T02:45:58.441Z,13.60
2023-05-06T02:48:25.763Z,13.50
2023-05-06T02:50:52.657Z,13.60
2023-05-06T02:53:19.338Z,13.50
2023-05-06T02:55:46.476Z,13.60
2023-05-06T02:58:13.770Z,13.60
2023-05-06T03:00:40.512Z,13.50
2023-05-06T03:03:07.228Z,13.50
2023-05-06T03:05:33.937Z,13.50
2023-05-06T03:08:00.735Z,13.50
2023-05-06T03:10:27.375Z,13.40
2023-05-06T03:12:55.901Z,13.40
2023-05-06T03:15:22.721Z,13.40
2023-05-06T03:17:49.665Z,13.40
2023-05-06T03:20:16.709Z,13.50
2023-05-06T03:22:50.142Z,13.40
2023-05-06T03:25:18.120Z,13.20
2023-05-06T03:27:45.139Z,13.10
2023-05-06T03:30:17.870Z,13.10
2023-05-06T03:32:45.682Z,13.20
2023-05-06T03:35:16.442Z,13.30
2023-05-06T03:37:46.920Z,13.40
2023-05-06T03:40:13.908Z,13.40
2023-05-06T03:42:40.696Z,13.40
2023-05-06T03:45:08.864Z,13.30
2023-05-06T03:47:36.728Z,13.20
2023-05-06T03:50:04.963Z,13.20
2023-05-06T03:52:33.764Z,13.00
2023-05-06T03:55:01.058Z,13.20
2023-05-06T03:57:29.800Z,13.10
2023-05-06T03:59:57.050Z,13.00
2023-05-06T04:02:25.221Z,13.00
2023-05-06T04:04:52.023Z,13.00
2023-05-06T04:07:18.691Z,13.10
2023-05-06T04:09:45.315Z,12.90
2023-05-06T04:12:11.979Z,12.90
2023-05-06T04:14:39.759Z,13.00
2023-05-06T04:17:07.706Z,13.10
2023-05-06T04:19:34.598Z,13.10
2023-05-06T04:22:01.332Z,13.10
2023-05-06T04:24:31.229Z,13.00
2023-05-06T04:26:58.741Z,13.00
2023-05-06T04:29:26.955Z,13.00
2023-05-06T04:31:58.291Z,13.00
2023-05-06T04:34:27.658Z,13.00
2023-05-06T04:36:55.463Z,13.10
2023-05-06T04:39:48.909Z,13.20
2023-05-06T04:42:16.185Z,13.10
2023-05-06T04:44:50.116Z,13.00
2023-05-06T04:47:20.439Z,13.00
2023-05-06T04:49:50.479Z,13.10
2023-05-06T04:52:17.841Z,13.20
2023-05-06T04:54:45.576Z,13.30
2023-05-06T04:57:13.124Z,13.30
2023-05-06T04:59:42.550Z,13.40
2023-05-06T05:02:09.257Z,13.50
2023-05-06T05:04:36.482Z,13.50
2023-05-06T05:07:03.159Z,13.60
2023-05-06T05:09:31.410Z,13.60
2023-05-06T05:11:58.300Z,13.60
2023-05-06T05:14:24.953Z,13.70
2023-05-06T05:16:51.986Z,13.70
2023-05-06T05:19:18.673Z,13.70
2023-05-06T05:21:45.572Z,13.80
2023-05-06T05:24:13.863Z,13.90
2023-05-06T05:26:40.506Z,13.90
2023-05-06T05:29:07.292Z,13.90
2023-05-06T05:31:35.238Z,14.00
2023-05-06T05:34:02.252Z,14.20
2023-05-06T05:36:29.035Z,14.30
2023-05-06T05:38:58.117Z,14.40
2023-05-06T05:41:26.787Z,14.50
2023-05-06T05:43:54.749Z,14.50
2023-05-06T05:46:21.793Z,14.50
2023-05-06T05:48:50.454Z,14.60
2023-05-06T05:51:18.598Z,14.70
2023-05-06T05:53:45.646Z,14.70
2023-05-06T05:56:13.332Z,15.00
2023-05-06T05:58:40.867Z,14.80
2023-05-06T06:01:07.942Z,14.80
2023-05-06T06:03:35.716Z,14.80
2023-05-06T06:06:02.552Z,14.50
2023-05-06T06:08:29.882Z,14.40
2023-05-06T06:10:58.182Z,14.20
2023-05-06T06:13:31.430Z,14.00
2023-05-06T06:15:59.367Z,13.90
2023-05-06T06:18:26.215Z,13.90
2023-05-06T06:20:53.612Z,13.80
2023-05-06T06:23:21.644Z,13.80
2023-05-06T06:25:48.361Z,14.00
2023-05-06T06:28:15.792Z,14.20
2023-05-06T06:30:43.702Z,14.40
2023-05-06T06:33:10.453Z,14.50
2023-05-06T06:35:37.232Z,14.50
2023-05-06T06:38:04.176Z,14.80
2023-05-06T06:40:30.888Z,14.60
2023-05-06T06:42:57.552Z,14.60
2023-05-06T06:45:50.063Z,14.70
2023-05-06T06:48:17.263Z,14.60
2023-05-06T06:50:47.523Z,14.80
2023-05-06T06:53:17.494Z,14.80
2023-05-06T06:55:45.140Z,14.50
2023-05-06T06:58:12.107Z,14.60
2023-05-06T07:00:40.923Z,14.60
2023-05-06T07:03:07.817Z,14.80
2023-05-06T07:05:37.653Z,14.80
2023-05-06T07:08:04.364Z,14.80
2023-05-06T07:10:31.053Z,15.00
2023-05-06T07:12:58.364Z,15.00
2023-05-06T07:15:25.663Z,15.00
2023-05-06T07:17:55.732Z,15.00
2023-05-06T07:20:22.436Z,15.20
2023-05-06T07:22:49.486Z,15.10
2023-05-06T07:25:16.217Z,15.30
2023-05-06T07:27:42.880Z,15.30
2023-05-06T07:30:09.974Z,15.30
2023-05-06T07:32:37.007Z,15.20
2023-05-06T07:35:03.893Z,15.40
2023-05-06T07:37:30.535Z,15.50
2023-05-06T07:39:57.965Z,15.30
2023-05-06T07:42:24.649Z,15.40
2023-05-06T07:44:51.435Z,15.40
2023-05-06T07:47:28.104Z,15.60
2023-05-06T07:49:55.442Z,15.90
2023-05-06T07:52:26.085Z,16.10
2023-05-06T07:54:53.233Z,16.10
2023-05-06T07:57:19.969Z,16.20
2023-05-06T07:59:51.677Z,16.30
2023-05-06T08:02:18.674Z,16.20
2023-05-06T08:04:46.259Z,16.20
2023-05-06T08:07:12.962Z,16.30
2023-05-06T08:09:39.670Z,16.00
2023-05-06T08:12:06.742Z,16.10
2023-05-06T08:14:33.456Z,16.20
2023-05-06T08:17:00.555Z,15.90
2023-05-06T08:19:27.264Z,15.90
2023-05-06T08:21:54.236Z,15.80
2023-05-06T08:24:20.992Z,15.50
2023-05-06T08:26:48.032Z,15.60
2023-05-06T08:29:14.715Z,15.80
2023-05-06T08:31:43.381Z,16.10
2023-05-06T08:34:10.095Z,16.20
2023-05-06T08:36:36.823Z,16.40
2023-05-06T08:39:03.584Z,16.70
2023-05-06T08:41:31.060Z,16.90
2023-05-06T08:44:00.716Z,16.70
2023-05-06T08:46:30.692Z,16.60
2023-05-06T08:48:58.819Z,16.40
2023-05-06T08:51:29.961Z,16.50
2023-05-06T08:54:00.180Z,16.70
2023-05-06T08:56:31.034Z,16.80
2023-05-06T08:58:58.570Z,17.00
2023-05-06T09:01:27.778Z,17.10
2023-05-06T09:03:56.748Z,17.20
2023-05-06T09:06:24.188Z,17.30
2023-05-06T09:08:51.171Z,17.40
2023-05-06T09:11:22.276Z,17.60
2023-05-06T09:13:49.129Z,17.80
2023-05-06T09:16:31.134Z,17.90
2023-05-06T09:18:59.181Z,17.70
2023-05-06T09:21:35.649Z,17.80
2023-05-06T09:24:04.318Z,17.70
2023-05-06T09:26:31.866Z,17.80
2023-05-06T09:28:59.361Z,17.90
2023-05-06T09:31:27.221Z,18.10
2023-05-06T09:33:56.341Z,18.10
2023-05-06T09:36:24.273Z,18.20
2023-05-06T09:38:51.096Z,18.40
2023-05-06T09:41:20.947Z,18.50
2023-05-06T09:43:49.181Z,18.40
2023-05-06T09:46:21.107Z,18.40
2023-05-06T09:48:51.412Z,18.40
2023-05-06T09:51:18.518Z,18.40
2023-05-06T09:53:45.538Z,18.70
2023-05-06T09:56:14.013Z,18.90
2023-05-06T09:58:41.907Z,19.00
2023-05-06T10:01:09.860Z,19.00
2023-05-06T10:03:37.345Z,18.90
2023-05-06T10:06:06.186Z,18.80
2023-05-06T10:08:37.198Z,18.90
2023-05-06T10:11:06.138Z,19.30
2023-05-06T10:13:33.731Z,19.60
2023-05-06T10:16:02.573Z,19.40
2023-05-06T10:18:30.707Z,19.40
2023-05-06T10:21:00.167Z,19.30
2023-05-06T10:23:49.640Z,19.70
2023-05-06T10:26:19.651Z,19.80
2023-05-06T10:28:49.606Z,19.70
2023-05-06T10:31:16.643Z,19.70
2023-05-06T10:33:48.279Z,20.00
2023-05-06T10:36:27.710Z,20.30
2023-05-06T10:39:00.401Z,20.50
2023-05-06T10:41:28.437Z,20.90
2023-05-06T10:43:59.924Z,21.10
2023-05-06T10:46:30.649Z,21.10
2023-05-06T10:49:06.575Z,21.10
2023-05-06T10:51:34.549Z,21.30
2023-05-06T10:54:09.060Z,21.40
2023-05-06T10:56:58.905Z,21.40
2023-05-06T10:59:29.813Z,21.20
2023-05-06T11:02:08.856Z,20.70
2023-05-06T11:04:37.406Z,20.60
2023-05-06T11:07:15.420Z,20.80
2023-05-06T11:09:56.420Z,21.10
2023-05-06T11:12:43.126Z,21.40
2023-05-06T11:15:26.868Z,21.60
2023-05-06T11:17:55.518Z,21.50
2023-05-06T11:20:26.604Z,21.60
2023-05-06T11:22:54.843Z,21.70
2023-05-06T11:25:42.594Z,21.70
2023-05-06T11:28:12.346Z,21.50
2023-05-06T11:30:43.882Z,21.60
2023-05-06T11:33:18.522Z,21.30
2023-05-06T11:35:45.300Z,21.50
2023-05-06T11:38:12.377Z,21.70
2023-05-06T11:40:41.820Z,21.60
2023-05-06T11:43:12.606Z,21.80
2023-05-06T11:45:48.682Z,22.00
2023-05-06T11:48:16.951Z,22.00
2023-05-06T11:50:52.067Z,22.00
2023-05-06T11:53:22.590Z,22.10
2023-05-06T11:55:52.862Z,22.30
2023-05-06T11:58:38.218Z,22.40
2023-05-06T12:01:09.816Z,22.50
2023-05-06T12:03:39.915Z,22.70
2023-05-06T12:06:16.640Z,22.70
2023-05-06T12:08:49.790Z,22.80
2023-05-06T12:11:16.633Z,23.00
2023-05-06T12:13:44.535Z,22.90
2023-05-06T12:16:20.773Z,23.00
2023-05-06T12:18:48.243Z,23.10
2023-05-06T12:21:27.904Z,23.20
2023-05-06T12:24:05.519Z,23.20
2023-05-06T12:26:57.229Z,23.20
2023-05-06T12:29:28.349Z,23.40
2023-05-06T12:32:11.673Z,23.50
2023-05-06T12:34:41.705Z,23.40
2023-05-06T12:37:17.259Z,23.10
2023-05-06T12:39:44.100Z,22.80
2023-05-06T12:42:20.482Z,22.90
2023-05-06T12:44:47.425Z,23.10
2023-05-06T12:47:20.680Z,23.30
2023-05-06T12:49:58.187Z,23.30
2023-05-06T12:52:28.745Z,23.50
2023-05-06T12:54:56.192Z,23.70
2023-05-06T12:57:22.988Z,23.90
2023-05-06T12:59:50.283Z,24.00
2023-05-06T13:02:17.152Z,24.00
2023-05-06T13:04:45.209Z,23.90
2023-05-06T13:07:12.015Z,23.70
2023-05-06T13:09:38.669Z,23.50
2023-05-06T13:12:07.102Z,23.60
2023-05-06T13:14:33.829Z,23.80
2023-05-06T13:17:01.527Z,23.70
2023-05-06T13:19:32.955Z,23.50
2023-05-06T13:22:03.220Z,23.70
2023-05-06T13:24:33.297Z,23.70
2023-05-06T13:27:01.464Z,23.30
2023-05-06T13:29:29.302Z,23.50
2023-05-06T13:31:56.337Z,23.60
2023-05-06T13:34:23.083Z,23.50
2023-05-06T13:36:50.708Z,23.80
2023-05-06T13:39:17.349Z,24.00
2023-05-06T13:41:58.671Z,24.10
2023-05-06T13:44:25.588Z,24.00
2023-05-06T13:46:52.509Z,24.20
2023-05-06T13:49:19.421Z,24.20
2023-05-06T13:51:46.070Z,24.30
2023-05-06T13:54:13.052Z,24.20
2023-05-06T13:56:42.685Z,24.10
2023-05-06T13:59:11.808Z,24.10
2023-05-06T14:01:39.316Z,24.10
2023-05-06T14:04:09.383Z,23.80
2023-05-06T14:06:36.312Z,23.60
2023-05-06T14:09:04.476Z,23.40
2023-05-06T14:11:31.160Z,23.10
2023-05-06T14:14:01.646Z,23.10
2023-05-06T14:16:28.453Z,23.10
2023-05-06T14:18:55.122Z,23.20
2023-05-06T14:21:21.880Z,23.30
2023-05-06T14:23:48.543Z,23.30
2023-05-06T14:26:15.238Z,23.40
2023-05-06T14:28:42.196Z,23.50
2023-05-06T14:31:12.001Z,23.60
2023-05-06T14:33:38.842Z,23.50
2023-05-06T14:36:09.054Z,23.50
2023-05-06T14:38:35.895Z,23.50
2023-05-06T14:41:02.515Z,23.40
2023-05-06T14:43:29.929Z,23.60
2023-05-06T14:45:56.832Z,23.70
2023-05-06T14:48:25.239Z,23.80
2023-05-06T14:50:51.925Z,23.80
2023-05-06T14:53:18.655Z,23.90
2023-05-06T14:55:45.450Z,23.80
2023-05-06T14:58:12.272Z,23.50
2023-05-06T15:00:38.992Z,23.50
2023-05-06T15:03:05.833Z,23.60
2023-05-06T15:05:32.591Z,23.70
2023-05-06T15:07:59.308Z,23.90
2023-05-06T15:10:29.166Z,24.00
2023-05-06T15:12:58.482Z,23.90
2023-05-06T15:15:28.514Z,24.10
2023-05-06T15:18:02.261Z,24.20
2023-05-06T15:20:30.891Z,24.20
2023-05-06T15:23:02.329Z,24.00
2023-05-06T15:25:35.685Z,24.10
2023-05-06T15:28:07.394Z,24.10
2023-05-06T15:30:40.063Z,24.10
2023-05-06T15:33:07.382Z,24.10
2023-05-06T15:35:43.108Z,24.00
2023-05-06T15:38:09.970Z,24.00
2023-05-06T15:40:43.344Z,23.70
2023-05-06T15:43:22.909Z,23.40
2023-05-06T15:45:53.698Z,23.30
2023-05-06T15:48:24.185Z,23.10
2023-05-06T15:50:51.326Z,23.10
2023-05-06T15:53:19.271Z,23.10
2023-05-06T15:55:56.200Z,23.00
2023-05-06T15:58:45.015Z,22.80
2023-05-06T16:01:14.709Z,22.70
2023-05-06T16:03:44.815Z,22.80
2023-05-06T16:06:12.065Z,22.90
2023-05-06T16:08:42.486Z,22.80
2023-05-06T16:11:12.669Z,22.60
2023-05-06T16:13:43.492Z,22.70
2023-05-06T16:16:12.730Z,22.70
2023-05-06T16:18:41.160Z,22.90
2023-05-06T16:21:11.404Z,22.90
2023-05-06T16:23:41.460Z,22.90
2023-05-06T16:26:13.509Z,23.00
2023-05-06T16:28:41.753Z,23.00
2023-05-06T16:31:08.834Z,22.90
2023-05-06T16:33:35.710Z,23.00
2023-05-06T16:36:03.422Z,23.00
2023-05-06T16:38:30.139Z,22.90
2023-05-06T16:40:56.801Z,22.90
2023-05-06T16:43:23.568Z,22.60
2023-05-06T16:45:50.249Z,22.50
2023-05-06T16:48:17.109Z,22.30
2023-05-06T16:50:43.881Z,22.30
2023-05-06T16:53:10.827Z,22.20
2023-05-06T16:55:37.729Z,22.10
2023-05-06T16:58:04.629Z,22.10
2023-05-06T17:00:32.000Z,22.10
2023-05-06T17:02:58.969Z,22.20
2023-05-06T17:05:27.952Z,22.20
2023-05-06T17:07:54.653Z,22.20
2023-05-06T17:10:21.998Z,22.20
2023-05-06T17:12:48.773Z,22.10
2023-05-06T17:15:16.001Z,22.10
2023-05-06T17:17:42.739Z,22.00
2023-05-06T17:20:09.936Z,21.90
2023-05-06T17:22:37.331Z,21.90
2023-05-06T17:25:04.382Z,22.00
2023-05-06T17:27:31.198Z,22.10
2023-05-06T17:30:00.631Z,22.00
2023-05-06T17:32:27.393Z,22.00
2023-05-06T17:34:54.280Z,21.90
2023-05-06T17:37:20.991Z,21.80
2023-05-06T17:39:47.739Z,21.70
2023-05-06T17:42:14.424Z,21.60
2023-05-06T17:44:42.731Z,21.70
2023-05-06T17:47:09.987Z,21.50
2023-05-06T17:49:36.930Z,21.50
2023-05-06T17:52:03.727Z,21.40
2023-05-06T17:54:34.693Z,21.30
2023-05-06T17:57:03.441Z,21.10
2023-05-06T17:59:30.386Z,21.00
2023-05-06T18:01:57.124Z,20.80
2023-05-06T18:04:24.070Z,20.60
2023-05-06T18:06:50.838Z,20.60
2023-05-06T18:09:17.626Z,20.50
2023-05-06T18:11:44.361Z,20.50
2023-05-06T18:14:11.923Z,20.20
2023-05-06T18:16:38.834Z,20.10
2023-05-06T18:19:05.679Z,20.10
2023-05-06T18:21:33.869Z,20.00
2023-05-06T18:24:10.274Z,19.90
2023-05-06T18:26:45.494Z,20.00
2023-05-06T18:29:12.919Z,19.90
2023-05-06T18:31:40.047Z,19.80
2023-05-06T18:34:06.729Z,19.80
2023-05-06T18:36:35.034Z,19.70
2023-05-06T18:39:02.444Z,19.60
2023-05-06T18:41:29.076Z,19.40
2023-05-06T18:43:59.325Z,19.30
2023-05-06T18:46:27.599Z,19.20
2023-05-06T18:48:55.931Z,19.10
2023-05-06T18:51:23.145Z,18.70
2023-05-06T18:53:49.781Z,18.30
2023-05-06T18:56:16.870Z,18.10
2023-05-06T18:58:43.598Z,18.10
2023-05-06T19:01:11.156Z,18.20
2023-05-06T19:03:38.287Z,18.20
2023-05-06T19:06:10.519Z,18.10
2023-05-06T19:08:43.581Z,17.80
2023-05-06T19:11:18.144Z,17.70
2023-05-06T19:13:48.057Z,17.90
2023-05-06T19:16:15.229Z,17.90
2023-05-06T19:18:41.988Z,17.90
2023-05-06T19:21:12.377Z,17.90
2023-05-06T19:23:39.440Z,17.80
2023-05-06T19:26:06.762Z,17.80
2023-05-06T19:28:34.188Z,17.80
2023-05-06T19:31:01.790Z,17.70
2023-05-06T19:33:28.595Z,17.60
2023-05-06T19:35:55.236Z,17.50
2023-05-06T19:38:21.945Z,17.60
2023-05-06T19:40:48.641Z,17.60
2023-05-06T19:43:15.329Z,17.60
2023-05-06T19:45:42.077Z,17.40
2023-05-06T19:48:08.869Z,17.30
2023-05-06T19:50:44.844Z,17.20
2023-05-06T19:53:11.688Z,17.00
2023-05-06T19:55:38.489Z,17.10
2023-05-06T19:58:05.562Z,16.90
2023-05-06T20:00:35.278Z,16.80
2023-05-06T20:03:02.059Z,16.80
2023-05-06T20:05:32.167Z,16.80
2023-05-06T20:08:02.173Z,16.80
2023-05-06T20:10:29.449Z,16.80
2023-05-06T20:12:57.791Z,16.80
2023-05-06T20:15:25.169Z,17.00
2023-05-06T20:17:51.856Z,16.80
2023-05-06T20:20:19.343Z,16.60
2023-05-06T20:22:46.033Z,16.50
2023-05-06T20:25:16.001Z,16.70
2023-05-06T20:27:46.281Z,16.80
2023-05-06T20:30:13.191Z,16.60
2023-05-06T20:32:40.673Z,16.60
2023-05-06T20:35:08.221Z,16.50
2023-05-06T20:37:36.099Z,16.50
2023-05-06T20:40:04.540Z,16.30
2023-05-06T20:42:33.430Z,16.20
2023-05-06T20:45:03.232Z,16.30
2023-05-06T20:47:30.459Z,16.20
2023-05-06T20:49:58.099Z,16.10
2023-05-06T20:52:26.249Z,16.00
2023-05-06T20:54:52.947Z,15.90
2023-05-06T20:57:21.896Z,16.00
2023-05-06T20:59:51.005Z,16.00
2023-05-06T21:02:17.762Z,15.80
2023-05-06T21:04:44.442Z,16.00
2023-05-06T21:07:11.615Z,16.00
2023-05-06T21:09:38.431Z,15.90
2023-05-06T21:12:05.355Z,15.90
2023-05-06T21:14:33.845Z,16.00
2023-05-06T21:17:01.088Z,15.90
2023-05-06T21:19:27.957Z,15.70
2023-05-06T21:21:55.104Z,15.70
2023-05-06T21:24:22.009Z,15.70
2023-05-06T21:26:49.006Z,15.70
2023-05-06T21:29:15.916Z,15.70
2023-05-06T21:31:42.663Z,15.70
2023-05-06T21:34:33.717Z,15.50
2023-05-06T21:37:05.397Z,15.40
2023-05-06T21:39:38.122Z,15.30
2023-05-06T21:42:07.972Z,15.40
2023-05-06T21:44:38.281Z,15.40
2023-05-06T21:47:05.475Z,15.30
2023-05-06T21:49:32.275Z,15.40
2023-05-06T21:51:59.079Z,15.30
2023-05-06T21:54:26.655Z,15.30
2023-05-06T21:56:54.017Z,15.30
2023-05-06T21:59:21.618Z,15.40
2023-05-06T22:01:48.582Z,15.40
2023-05-06T22:04:16.576Z,15.40
2023-05-06T22:06:43.390Z,15.30
2023-05-06T22:09:11.104Z,15.20
2023-05-06T22:11:40.848Z,15.30
2023-05-06T22:14:11.767Z,15.20
2023-05-06T22:16:39.459Z,15.20
2023-05-06T22:19:07.141Z,15.30
2023-05-06T22:21:34.846Z,15.30
2023-05-06T22:24:01.821Z,15.40
2023-05-06T22:26:28.555Z,15.40
2023-05-06T22:29:02.084Z,15.20
2023-05-06T22:31:28.905Z,15.00
2023-05-06T22:33:57.828Z,15.00
2023-05-06T22:36:28.812Z,15.00
2023-05-06T22:38:59.771Z,15.00
2023-05-06T22:41:35.759Z,15.00
2023-05-06T22:44:06.436Z,15.00
2023-05-06T22:46:33.601Z,14.90
2023-05-06T22:49:00.353Z,14.80
2023-05-06T22:51:28.084Z,14.80
2023-05-06T22:53:54.726Z,14.80
2023-05-06T22:56:21.833Z,14.80
2023-05-06T22:58:48.929Z,14.80
2023-05-06T23:01:18.120Z,14.80
2023-05-06T23:03:48.406Z,14.60
2023-05-06T23:06:16.337Z,14.40
2023-05-06T23:08:43.002Z,14.50
2023-05-06T23:11:09.987Z,14.60
2023-05-06T23:13:37.655Z,14.50
2023-05-06T23:16:05.108Z,14.50
2023-05-06T23:18:32.179Z,14.40
2023-05-06T23:20:58.937Z,14.20
2023-05-06T23:23:25.714Z,14.20
2023-05-06T23:25:53.292Z,14.20
2023-05-06T23:28:19.982Z,14.40
2023-05-06T23:30:46.676Z,14.20
2023-05-06T23:33:13.537Z,14.10
2023-05-06T23:35:40.787Z,13.70
2023-05-06T23:38:07.515Z,13.80
2023-05-06T23:40:34.306Z,13.80
2023-05-06T23:43:00.938Z,13.80
2023-05-06T23:45:27.812Z,13.90
2023-05-06T23:47:54.777Z,13.90
2023-05-06T23:50:21.435Z,14.00
2023-05-06T23:52:48.167Z,13.90
2023-05-06T23:55:15.175Z,13.80
2023-05-06T23:57:41.925Z,13.80
